Time;durP1;ratioP1;P1;durP2;ratioP2;P2;SDS_P1;SDS_P2;PMS_P1;PMS_P2;Temp;Humidity;BMP_temperature;BMP_pressure;BME280_temperature;BME280_humidity;BME280_pressure;Samples;Min_cycle;Max_cycle;Signal;HPM_P1;HPM_P2
2022/08/10 00:00:59;;;;;;;13.10;8.10;;;;;;;27.02;37.47;99332.34;5056178;28;20200;-57
2022/08/10 00:03:26;;;;;;;9.35;7.65;;;;;;;27.00;37.58;99338.66;5070230;28;20230;-57
2022/08/10 00:05:55;;;;;;;7.78;7.00;;;;;;;27.02;37.34;99331.50;5070175;28;20659;-57
2022/08/10 00:08:24;;;;;;;8.35;7.10;;;;;;;27.06;37.41;99335.69;5070523;28;20277;-57
2022/08/10 00:10:52;;;;;;;8.20;7.43;;;;;;;27.07;37.27;99338.25;5062484;28;20257;-57
2022/08/10 00:13:19;;;;;;;6.95;6.35;;;;;;;27.04;37.10;99330.47;5061742;28;20249;-57
2022/08/10 00:15:46;;;;;;;8.45;7.00;;;;;;;27.06;37.20;99325.16;5050257;28;20192;-57
2022/08/10 00:18:14;;;;;;;9.98;7.82;;;;;;;27.04;37.31;99325.22;5053531;28;20226;-57
2022/08/10 00:20:40;;;;;;;7.78;7.00;;;;;;;27.02;37.28;99339.41;5069815;28;20264;-57
2022/08/10 00:23:07;;;;;;;9.73;6.65;;;;;;;27.04;37.35;99333.13;5069794;28;20195;-57
2022/08/10 00:25:35;;;;;;;9.35;7.35;;;;;;;27.02;37.61;99328.88;5069904;28;20657;-57
2022/08/10 00:28:02;;;;;;;7.70;7.00;;;;;;;27.02;37.63;99332.34;5070063;28;20195;-57
2022/08/10 00:30:29;;;;;;;7.10;6.50;;;;;;;27.02;37.35;99334.13;5070013;28;20187;-57
2022/08/10 00:32:56;;;;;;;9.00;7.13;;;;;;;27.02;37.30;99340.28;5070052;28;20203;-57
2022/08/10 00:35:23;;;;;;;8.85;7.18;;;;;;;27.00;37.79;99326.31;5069815;28;20559;-58
2022/08/10 00:37:49;;;;;;;8.65;7.25;;;;;;;26.99;37.62;99326.38;5069892;28;20248;-57
2022/08/10 00:40:16;;;;;;;7.50;6.90;;;;;;;27.06;37.66;99328.59;5070040;28;20191;-57
2022/08/10 00:42:44;;;;;;;7.50;6.60;;;;;;;27.01;37.57;99335.91;5068953;28;20203;-57
2022/08/10 00:45:11;;;;;;;7.68;6.97;;;;;;;27.02;37.68;99335.00;5056420;28;20273;-57
2022/08/10 00:47:38;;;;;;;8.65;7.30;;;;;;;26.92;37.56;99321.44;5049310;28;20659;-57
2022/08/10 00:50:06;;;;;;;7.55;6.88;;;;;;;26.98;37.69;99336.06;5049723;28;20525;-57
2022/08/10 00:52:34;;;;;;;9.07;6.75;;;;;;;26.91;37.84;99329.44;5055408;28;20210;-57
2022/08/10 00:55:02;;;;;;;8.60;7.00;;;;;;;26.89;37.95;99332.13;5069956;28;20210;-58
2022/08/10 00:57:29;;;;;;;8.38;7.40;;;;;;;26.89;38.11;99336.59;5058222;28;20688;-65
2022/08/10 00:59:57;;;;;;;8.10;7.38;;;;;;;26.86;38.27;99326.19;5064970;28;20210;-65
2022/08/10 01:02:24;;;;;;;9.18;7.00;;;;;;;26.88;38.24;99333.09;5062822;28;20997;-66
2022/08/10 01:04:51;;;;;;;10.80;7.45;;;;;;;26.88;38.08;99321.69;5073583;28;20218;-65
2022/08/10 01:07:32;;;;;;;9.30;7.40;;;;;;;26.85;38.14;99316.56;5073586;28;20202;-65
2022/08/10 01:10:15;;;;;;;9.35;7.60;;;;;;;26.84;38.30;99317.50;5073767;28;20264;-65
2022/08/10 01:12:50;;;;;;;8.38;6.70;;;;;;;26.76;38.37;99320.50;5073436;28;20273;-66
2022/08/10 01:15:24;;;;;;;8.55;7.65;;;;;;;26.72;38.36;99324.25;5059564;28;20183;-66
2022/08/10 01:17:57;;;;;;;8.32;7.43;;;;;;;26.58;38.71;99302.16;5073647;28;20275;-66
2022/08/10 01:20:33;;;;;;;7.60;6.90;;;;;;;26.66;38.91;99319.28;5073361;28;20196;-65
2022/08/10 01:23:30;;;;;;;10.90;7.93;;;;;;;26.67;38.63;99320.16;5073537;28;20547;-65
2022/08/10 01:26:09;;;;;;;10.68;7.20;;;;;;;26.63;38.73;99318.59;5061077;28;20647;-65
2022/08/10 01:28:45;;;;;;;9.05;6.88;;;;;;;26.63;38.77;99319.44;5073311;28;20202;-65
2022/08/10 01:31:19;;;;;;;7.57;6.75;;;;;;;26.62;38.68;99311.59;5072524;28;20287;-65
2022/08/10 01:33:51;;;;;;;7.93;7.03;;;;;;;26.59;38.84;99306.53;5066160;28;20195;-65
2022/08/10 01:36:23;;;;;;;8.88;6.82;;;;;;;26.56;39.04;99297.00;5064367;28;20188;-66
2022/08/10 01:38:52;;;;;;;7.32;6.65;;;;;;;26.56;39.19;99297.00;5067337;28;20257;-65
2022/08/10 01:41:22;;;;;;;10.00;7.15;;;;;;;26.50;39.35;99286.75;5069139;28;20245;-65
2022/08/10 01:43:56;;;;;;;9.85;6.05;;;;;;;26.54;39.29;99282.16;5061865;28;20690;-65
2022/08/10 01:46:25;;;;;;;7.40;6.70;;;;;;;26.35;39.58;99267.31;5061344;28;20199;-66
2022/08/10 01:48:55;;;;;;;7.60;6.65;;;;;;;26.41;39.38;99281.94;5073663;28;20192;-65
2022/08/10 01:51:26;;;;;;;8.00;7.20;;;;;;;26.43;39.54;99287.13;5073241;28;20209;-65
2022/08/10 01:53:56;;;;;;;7.45;6.85;;;;;;;26.43;39.28;99285.34;5073214;28;20191;-66
2022/08/10 01:56:25;;;;;;;9.85;6.47;;;;;;;26.41;39.36;99295.13;5072402;28;20191;-66
2022/08/10 01:58:57;;;;;;;7.35;6.75;;;;;;;26.46;39.11;99284.34;5072991;28;20199;-66
2022/08/10 02:01:28;;;;;;;7.30;6.60;;;;;;;26.46;39.09;99294.88;5073243;28;20269;-65
2022/08/10 02:03:59;;;;;;;10.90;6.80;;;;;;;26.50;38.93;99292.03;5072925;28;20218;-66
2022/08/10 02:06:30;;;;;;;7.63;6.28;;;;;;;26.51;38.44;99287.63;5073189;28;20192;-65
2022/08/10 02:08:59;;;;;;;7.15;6.50;;;;;;;26.50;38.41;99286.75;5072804;28;20187;-65
2022/08/10 02:11:27;;;;;;;7.38;6.68;;;;;;;26.37;38.45;99269.84;5073217;28;20249;-65
2022/08/10 02:13:56;;;;;;;7.28;6.50;;;;;;;26.49;38.54;99289.47;5072333;28;20430;-65
2022/08/10 02:16:26;;;;;;;7.72;6.57;;;;;;;26.55;38.37;99281.25;5072947;28;20270;-65
2022/08/10 02:18:58;;;;;;;6.97;6.35;;;;;;;26.55;38.36;99289.16;5072542;28;20721;-65
2022/08/10 02:21:29;;;;;;;8.18;6.07;;;;;;;26.54;38.42;99283.03;5072845;28;20264;-65
2022/08/10 02:23:59;;;;;;;7.47;5.88;;;;;;;26.54;38.24;99285.66;5072782;28;20238;-65
2022/08/10 02:26:27;;;;;;;6.95;6.18;;;;;;;26.52;38.29;99284.03;5072575;28;20569;-65
2022/08/10 02:28:54;;;;;;;6.80;6.10;;;;;;;26.56;38.24;99283.81;5072870;28;20253;-65
2022/08/10 02:31:23;;;;;;;9.07;6.20;;;;;;;26.55;38.24;99278.59;5072494;28;20195;-64
2022/08/10 02:33:56;;;;;;;10.95;6.25;;;;;;;26.56;38.34;99288.22;5072521;28;20192;-65
2022/08/10 02:36:24;;;;;;;10.32;6.07;;;;;;;26.61;38.03;99294.09;5072467;28;20184;-65
2022/08/10 02:38:55;;;;;;;8.32;5.85;;;;;;;26.55;38.38;99297.91;5072639;28;20223;-66
2022/08/10 02:41:29;;;;;;;8.63;6.17;;;;;;;26.55;38.11;99297.06;5072244;28;20237;-65
2022/08/10 02:44:03;;;;;;;7.60;5.80;;;;;;;26.59;38.01;99293.34;5072078;28;20282;-65
2022/08/10 02:46:36;;;;;;;7.05;5.43;;;;;;;26.56;38.06;99296.13;5072386;28;20267;-65
2022/08/10 02:49:06;;;;;;;6.10;5.50;;;;;;;26.43;38.44;99279.22;5072216;28;20617;-66
2022/08/10 02:51:42;;;;;;;9.32;6.00;;;;;;;26.60;38.06;99311.69;5072259;28;20188;-66
2022/08/10 02:54:15;;;;;;;6.38;5.78;;;;;;;26.61;38.07;99312.56;5072201;28;20253;-65
2022/08/10 02:56:51;;;;;;;6.28;5.68;;;;;;;26.57;38.30;99311.00;5072200;28;20203;-58
2022/08/10 02:59:25;;;;;;;6.68;6.07;;;;;;;26.58;38.23;99313.56;5071850;28;20260;-57
2022/08/10 03:01:55;;;;;;;7.65;6.30;;;;;;;26.65;38.26;99308.81;5071390;28;20442;-58
2022/08/10 03:04:30;;;;;;;6.20;5.68;;;;;;;26.68;38.00;99314.78;5071784;28;20219;-58
2022/08/10 03:07:02;;;;;;;7.20;5.45;;;;;;;26.64;38.21;99315.91;5071692;28;20194;-57
2022/08/10 03:09:33;;;;;;;5.78;5.20;;;;;;;26.60;38.28;99310.84;5071750;28;20241;-58
2022/08/10 03:12:02;;;;;;;6.50;5.63;;;;;;;26.63;37.78;99314.19;5071752;28;20192;-57
2022/08/10 03:14:30;;;;;;;6.10;5.50;;;;;;;26.60;38.10;99324.88;5071662;28;20199;-58
2022/08/10 03:16:59;;;;;;;6.57;5.45;;;;;;;26.59;38.20;99327.59;5071405;28;20245;-57
2022/08/10 03:19:29;;;;;;;6.43;5.82;;;;;;;26.65;37.83;99324.63;5070857;28;20670;-56
2022/08/10 03:21:57;;;;;;;11.98;6.20;;;;;;;26.62;38.27;99328.28;5071807;28;20206;-58
2022/08/10 03:24:25;;;;;;;7.17;5.53;;;;;;;26.62;37.90;99328.28;5070852;28;20296;-58
2022/08/10 03:26:53;;;;;;;6.50;5.90;;;;;;;26.65;38.34;99332.53;5071523;28;20546;-57
2022/08/10 03:29:22;;;;;;;6.38;5.80;;;;;;;26.62;38.47;99336.19;5071569;28;20196;-57
2022/08/10 03:31:51;;;;;;;5.75;5.30;;;;;;;26.58;38.56;99337.28;5070439;28;20195;-57
2022/08/10 03:34:19;;;;;;;6.50;5.90;;;;;;;26.54;38.81;99338.38;5071083;28;20202;-57
2022/08/10 03:36:48;;;;;;;6.35;5.68;;;;;;;26.58;38.90;99336.44;5071143;28;20647;-58
2022/08/10 03:39:15;;;;;;;6.82;6.20;;;;;;;26.48;39.26;99340.47;5070844;28;20697;-56
2022/08/10 03:41:47;;;;;;;11.05;6.22;;;;;;;26.50;39.00;99343.88;5071113;28;20206;-57
2022/08/10 03:44:18;;;;;;;10.18;6.72;;;;;;;26.48;39.30;99338.66;5070844;28;20252;-57
2022/08/10 03:46:47;;;;;;;7.05;6.13;;;;;;;26.37;39.50;99328.69;5070871;28;20207;-57
2022/08/10 03:49:17;;;;;;;6.20;5.68;;;;;;;26.40;39.49;99346.09;5070859;28;20183;-58
2022/08/10 03:51:47;;;;;;;10.30;6.28;;;;;;;26.42;39.49;99346.06;5070552;28;20195;-57
2022/08/10 03:54:16;;;;;;;7.38;5.35;;;;;;;26.36;39.47;99332.25;5070708;28;20278;-57
2022/08/10 03:56:43;;;;;;;8.15;5.72;;;;;;;26.41;39.56;99346.97;5070560;28;20202;-57
2022/08/10 03:59:12;;;;;;;6.03;5.50;;;;;;;26.41;39.58;99349.59;5070556;28;20199;-58
2022/08/10 04:01:40;;;;;;;9.02;5.82;;;;;;;26.38;39.96;99348.84;5070329;28;20202;-57
2022/08/10 04:04:07;;;;;;;7.32;6.22;;;;;;;26.40;40.05;99347.91;5070558;28;20195;-57
2022/08/10 04:06:34;;;;;;;7.40;6.70;;;;;;;26.44;39.78;99357.34;5065787;28;20567;-57
2022/08/10 04:09:02;;;;;;;7.20;6.55;;;;;;;26.24;39.84;99317.06;5068022;28;20199;-57
2022/08/10 04:11:30;;;;;;;6.32;5.72;;;;;;;26.43;39.71;99350.38;5069848;28;20188;-57
2022/08/10 04:13:57;;;;;;;6.65;5.80;;;;;;;26.48;39.62;99354.47;5069826;28;20665;-57
2022/08/10 04:16:24;;;;;;;6.20;5.60;;;;;;;26.46;39.84;99358.97;5068597;28;20222;-57
2022/08/10 04:18:51;;;;;;;8.27;6.07;;;;;;;26.52;39.71;99361.31;5070269;28;20223;-56
2022/08/10 04:21:23;;;;;;;6.47;5.97;;;;;;;26.51;39.65;99362.22;5070413;28;20187;-57
2022/08/10 04:23:51;;;;;;;6.55;5.95;;;;;;;26.54;39.69;99359.44;5070095;28;20198;-57
2022/08/10 04:26:18;;;;;;;9.23;5.28;;;;;;;26.60;39.49;99358.28;5070153;28;20226;-57
2022/08/10 04:28:47;;;;;;;7.13;6.43;;;;;;;26.63;39.38;99358.13;5070404;28;20196;-57
2022/08/10 04:31:16;;;;;;;7.28;6.00;;;;;;;26.65;39.54;99356.25;5070607;28;20191;-57
2022/08/10 04:33:48;;;;;;;7.28;5.65;;;;;;;26.68;39.35;99362.22;5069460;28;20199;-57
2022/08/10 04:36:16;;;;;;;6.53;5.88;;;;;;;26.72;39.54;99368.22;5069307;28;20578;-57
2022/08/10 04:38:45;;;;;;;9.32;5.72;;;;;;;26.76;39.32;99361.84;5070140;28;20211;-57
2022/08/10 04:41:13;;;;;;;9.38;6.50;;;;;;;26.74;39.45;99367.19;5069207;28;20445;-57
2022/08/10 04:43:39;;;;;;;7.15;5.88;;;;;;;26.81;39.07;99370.41;5069584;28;20227;-57
2022/08/10 04:46:08;;;;;;;6.63;5.97;;;;;;;26.90;38.70;99369.91;5069702;28;20215;-57
2022/08/10 04:48:35;;;;;;;6.20;5.65;;;;;;;26.92;38.92;99374.16;5069479;28;20198;-57
2022/08/10 04:51:02;;;;;;;6.22;5.38;;;;;;;26.93;39.00;99364.47;5069857;28;20219;-57
2022/08/10 04:53:29;;;;;;;6.13;5.50;;;;;;;26.94;39.35;99360.94;5068617;28;20200;-56
2022/08/10 04:55:55;;;;;;;6.15;5.70;;;;;;;27.05;38.89;99363.84;5069621;28;20183;-57
2022/08/10 04:58:22;;;;;;;5.97;5.47;;;;;;;27.09;38.58;99364.53;5069422;28;20202;-57
2022/08/10 05:00:49;;;;;;;6.18;5.57;;;;;;;27.19;38.69;99366.63;5068060;28;20191;-57
2022/08/10 05:03:17;;;;;;;6.63;6.03;;;;;;;27.22;38.56;99358.50;5068086;28;20195;-57
2022/08/10 05:05:44;;;;;;;5.93;5.40;;;;;;;27.33;38.52;99363.22;5069224;28;20697;-57
2022/08/10 05:08:11;;;;;;;6.63;5.35;;;;;;;27.27;38.36;99360.91;5069545;28;20278;-58
2022/08/10 05:10:38;;;;;;;6.72;6.13;;;;;;;27.30;38.58;99355.47;5069267;28;20203;-57
2022/08/10 05:13:05;;;;;;;5.75;5.22;;;;;;;27.28;39.51;99352.91;5064138;28;20279;-57
2022/08/10 05:15:32;;;;;;;6.43;5.88;;;;;;;27.30;39.13;99353.69;5066916;28;20191;-57
2022/08/10 05:17:59;;;;;;;9.52;6.43;;;;;;;27.38;38.92;99356.78;5068876;28;20224;-57
2022/08/10 05:20:27;;;;;;;7.97;5.78;;;;;;;27.37;38.80;99348.91;5068621;28;20196;-57
2022/08/10 05:22:54;;;;;;;5.35;4.85;;;;;;;27.43;38.73;99348.63;5069083;28;20191;-58
2022/08/10 05:25:21;;;;;;;5.95;5.45;;;;;;;27.43;38.59;99353.91;5069020;28;20238;-57
2022/08/10 05:27:48;;;;;;;7.00;6.30;;;;;;;27.33;38.72;99350.03;5068758;28;20188;-57
2022/08/10 05:30:18;;;;;;;7.07;5.80;;;;;;;27.40;38.68;99356.66;5065601;28;20458;-58
2022/08/10 05:32:46;;;;;;;7.32;6.45;;;;;;;27.53;39.07;99352.44;5064608;28;20688;-58
2022/08/10 05:35:13;;;;;;;7.50;6.55;;;;;;;27.61;39.09;99359.97;5068619;28;20184;-58
2022/08/10 05:37:42;;;;;;;7.97;6.72;;;;;;;27.69;38.92;99363.03;5068611;28;20274;-58
2022/08/10 05:40:09;;;;;;;6.38;5.78;;;;;;;27.75;38.89;99360.03;5069073;28;20219;-58
2022/08/10 05:42:36;;;;;;;8.35;6.72;;;;;;;27.83;38.96;99352.53;5068229;28;20198;-58
2022/08/10 05:45:04;;;;;;;8.73;5.90;;;;;;;27.91;38.58;99355.59;5068467;28;20711;-57
2022/08/10 05:47:31;;;;;;;9.02;6.45;;;;;;;27.95;38.95;99358.00;5071350;28;20437;-58
2022/08/10 05:49:58;;;;;;;8.30;6.07;;;;;;;27.98;38.48;99356.97;5073132;28;20195;-57
2022/08/10 05:52:25;;;;;;;6.57;5.90;;;;;;;28.08;38.92;99364.31;5073159;28;20192;-58
2022/08/10 05:54:53;;;;;;;8.23;5.97;;;;;;;28.06;38.84;99360.91;5073218;28;20191;-58
2022/08/10 05:57:22;;;;;;;6.68;5.88;;;;;;;28.08;38.74;99358.16;5072651;28;20195;-58
2022/08/10 05:59:59;;;;;;;6.80;6.07;;;;;;;27.70;38.83;99320.69;5071950;28;20434;-58
2022/08/10 06:02:30;;;;;;;7.18;6.40;;;;;;;28.13;38.59;99369.31;5073005;28;20199;-58
2022/08/10 06:05:00;;;;;;;8.45;6.03;;;;;;;28.09;39.16;99366.00;5072929;28;20245;-58
2022/08/10 06:07:28;;;;;;;7.00;6.30;;;;;;;28.18;38.88;99369.94;5072679;28;20192;-57
2022/08/10 06:09:58;;;;;;;10.63;5.95;;;;;;;28.00;39.02;99370.94;5070069;28;20238;-57
2022/08/10 06:12:27;;;;;;;8.57;6.40;;;;;;;28.06;39.48;99373.25;5065161;28;20197;-57
2022/08/10 06:15:02;;;;;;;6.95;6.35;;;;;;;28.12;39.49;99377.34;5065105;28;20192;-57
2022/08/10 06:17:31;;;;;;;7.38;6.68;;;;;;;28.03;38.79;99354.94;5066800;28;20318;-58
2022/08/10 06:19:59;;;;;;;6.60;6.00;;;;;;;28.26;38.68;99372.13;5072223;28;20195;-58
2022/08/10 06:22:26;;;;;;;7.43;6.60;;;;;;;28.34;38.49;99369.88;5072435;28;20581;-58
2022/08/10 06:24:56;;;;;;;7.10;6.40;;;;;;;28.35;37.95;99355.75;5072190;28;20226;-59
2022/08/10 06:27:23;;;;;;;8.07;6.40;;;;;;;28.41;38.26;99358.00;5071905;28;20192;-57
2022/08/10 06:29:52;;;;;;;7.03;6.38;;;;;;;28.49;38.44;99361.91;5071733;28;20195;-59
2022/08/10 06:32:24;;;;;;;8.15;6.90;;;;;;;28.53;38.05;99354.63;5071539;28;20560;-58
2022/08/10 06:34:54;;;;;;;7.57;6.70;;;;;;;28.53;38.13;99362.56;5071686;28;20445;-59
2022/08/10 06:37:24;;;;;;;7.97;6.72;;;;;;;28.59;38.39;99360.44;5071897;28;20253;-57
2022/08/10 06:39:52;;;;;;;10.43;7.65;;;;;;;28.67;38.39;99366.16;5071681;28;20198;-58
2022/08/10 06:42:26;;;;;;;7.72;7.00;;;;;;;28.66;38.72;99361.78;5071414;28;20191;-59
2022/08/10 06:45:00;;;;;;;7.38;6.63;;;;;;;28.77;38.13;99374.38;5072159;28;20669;-57
2022/08/10 06:47:34;;;;;;;8.45;6.30;;;;;;;28.65;37.90;99372.47;5051835;28;20200;-58
2022/08/10 06:50:07;;;;;;;9.10;6.15;;;;;;;28.68;37.82;99359.03;5051958;28;20199;-57
2022/08/10 06:52:36;;;;;;;11.25;6.82;;;;;;;28.76;37.92;99370.00;5051807;28;20199;-62
2022/08/10 06:55:05;;;;;;;10.18;6.40;;;;;;;28.79;37.50;99374.28;5051438;28;20282;-58
2022/08/10 06:57:37;;;;;;;7.13;6.35;;;;;;;28.93;37.39;99374.28;5050952;28;20203;-56
2022/08/10 07:00:06;;;;;;;7.75;6.30;;;;;;;29.07;37.05;99371.66;5051252;28;20620;-57
2022/08/10 07:02:41;;;;;;;7.30;6.60;;;;;;;29.12;37.54;99366.91;5066024;28;20195;-58
2022/08/10 07:05:14;;;;;;;10.85;6.90;;;;;;;29.27;37.43;99373.97;5069800;28;20444;-58
2022/08/10 07:07:43;;;;;;;7.20;6.60;;;;;;;29.38;36.57;99381.22;5071150;28;20195;-58
2022/08/10 07:10:12;;;;;;;7.05;6.50;;;;;;;29.45;36.27;99385.19;5070632;28;20199;-58
2022/08/10 07:12:41;;;;;;;7.25;6.50;;;;;;;29.53;35.93;99381.13;5068470;28;20195;-58
2022/08/10 07:15:10;;;;;;;9.45;6.43;;;;;;;29.65;35.96;99383.00;5068012;28;20196;-58
2022/08/10 07:17:37;;;;;;;9.20;6.82;;;;;;;29.87;36.08;99381.66;5070339;28;20231;-58
2022/08/10 07:20:08;;;;;;;6.85;6.15;;;;;;;29.94;35.56;99380.31;5070502;28;20628;-67
2022/08/10 07:22:37;;;;;;;7.88;7.18;;;;;;;29.94;35.77;99382.97;5070409;28;20195;-66
2022/08/10 07:25:06;;;;;;;10.98;6.82;;;;;;;29.99;34.63;99386.16;5070310;28;20208;-67
2022/08/10 07:27:34;;;;;;;8.75;6.28;;;;;;;30.02;34.66;99383.31;5069486;28;20190;-67
2022/08/10 07:30:03;;;;;;;10.63;6.97;;;;;;;30.13;34.70;99378.19;5070054;28;20198;-67
2022/08/10 07:32:33;;;;;;;8.80;6.53;;;;;;;30.24;34.92;99381.78;5069498;28;20192;-67
2022/08/10 07:35:02;;;;;;;7.78;7.07;;;;;;;30.34;35.51;99374.97;5069070;28;20188;-66
2022/08/10 07:37:34;;;;;;;7.22;6.53;;;;;;;30.45;34.68;99381.38;5066403;28;20579;-67
2022/08/10 07:40:02;;;;;;;10.25;6.80;;;;;;;30.38;34.62;99384.41;5067491;28;20191;-68
2022/08/10 07:42:30;;;;;;;8.90;6.55;;;;;;;30.49;34.45;99385.53;5068112;28;20578;-66
2022/08/10 07:44:57;;;;;;;7.20;6.63;;;;;;;30.50;33.44;99387.22;5068559;28;20195;-66
2022/08/10 07:47:30;;;;;;;7.15;6.47;;;;;;;30.57;33.71;99381.41;5068822;28;20233;-66
2022/08/10 07:50:01;;;;;;;10.02;6.97;;;;;;;30.69;33.83;99391.19;5068729;28;20508;-66
2022/08/10 07:52:29;;;;;;;6.47;5.95;;;;;;;30.78;33.13;99390.56;5070070;28;20207;-66
2022/08/10 07:54:57;;;;;;;7.15;5.95;;;;;;;30.57;32.91;99386.72;5069830;28;20207;-66
2022/08/10 07:57:27;;;;;;;7.10;6.40;;;;;;;30.43;33.07;99392.09;5060093;28;20192;-66
2022/08/10 07:59:57;;;;;;;6.97;5.80;;;;;;;30.56;32.80;99379.69;5069951;28;20195;-67
2022/08/10 08:02:29;;;;;;;9.18;5.82;;;;;;;30.47;32.85;99379.44;5069763;28;20203;-66
2022/08/10 08:04:58;;;;;;;6.95;6.25;;;;;;;30.56;32.98;99378.84;5070146;28;20199;-66
2022/08/10 08:07:26;;;;;;;10.13;6.55;;;;;;;30.63;33.75;99375.66;5060414;28;20277;-66
2022/08/10 08:09:55;;;;;;;8.27;7.45;;;;;;;30.70;32.96;99374.31;5063030;28;20199;-67
2022/08/10 08:12:23;;;;;;;12.55;11.43;;;;;;;30.84;32.54;99368.94;5062682;28;20520;-67
2022/08/10 08:14:52;;;;;;;9.70;8.75;;;;;;;30.96;32.87;99376.06;5066889;28;20575;-66
2022/08/10 08:17:23;;;;;;;8.35;7.30;;;;;;;31.19;33.24;99377.13;5067889;28;20449;-66
2022/08/10 08:19:53;;;;;;;8.15;6.85;;;;;;;31.41;33.09;99373.78;5069979;28;20187;-65
2022/08/10 08:22:20;;;;;;;7.15;5.90;;;;;;;31.46;31.88;99372.53;5069533;28;20191;-65
2022/08/10 08:24:49;;;;;;;7.18;6.57;;;;;;;31.44;31.58;99368.25;5069804;28;20191;-65
2022/08/10 08:27:18;;;;;;;10.63;7.68;;;;;;;31.50;31.54;99363.41;5062245;28;20231;-66
2022/08/10 08:29:47;;;;;;;6.28;5.72;;;;;;;31.51;31.73;99369.53;5049674;28;20318;-66
2022/08/10 08:32:17;;;;;;;6.95;6.35;;;;;;;31.10;31.75;99368.94;5049511;28;20649;-66
2022/08/10 08:34:46;;;;;;;7.65;6.82;;;;;;;31.03;31.74;99367.66;5049284;28;20218;-66
2022/08/10 08:37:17;;;;;;;6.32;5.82;;;;;;;31.01;32.00;99365.13;5049251;28;20203;-66
2022/08/10 08:39:44;;;;;;;9.57;6.00;;;;;;;30.82;32.63;99362.84;5052200;28;20199;-66
2022/08/10 08:42:27;;;;;;;7.72;6.00;;;;;;;30.77;32.95;99364.97;5069485;28;20207;-66
2022/08/10 08:45:15;;;;;;;12.30;8.23;;;;;;;31.06;32.68;99367.47;5069081;28;20242;-66
2022/08/10 08:48:14;;;;;;;9.48;6.55;;;;;;;31.06;32.18;99349.72;5068696;28;20467;-66
2022/08/10 08:50:53;;;;;;;6.68;6.15;;;;;;;30.93;31.82;99364.81;5069362;28;20274;-66
2022/08/10 08:53:37;;;;;;;7.53;6.47;;;;;;;30.78;31.90;99356.06;5069272;28;20191;-66
2022/08/10 08:56:14;;;;;;;8.60;6.40;;;;;;;30.91;32.07;99348.09;5069207;28;20188;-66
2022/08/10 08:58:56;;;;;;;8.23;6.80;;;;;;;31.11;32.48;99350.25;5069333;28;20198;-66
2022/08/10 09:01:47;;;;;;;6.95;6.25;;;;;;;31.34;32.30;99348.63;5069102;28;20220;-66
2022/08/10 09:04:32;;;;;;;6.70;6.10;;;;;;;31.54;31.80;99353.38;5069436;28;20203;-66
2022/08/10 09:07:35;;;;;;;6.97;6.28;;;;;;;31.69;30.70;99349.66;5069175;28;20215;-67
2022/08/10 09:10:12;;;;;;;6.50;5.93;;;;;;;31.85;31.04;99344.91;5063688;28;20205;-66
2022/08/10 09:12:48;;;;;;;7.53;6.25;;;;;;;31.99;30.11;99347.41;5069191;28;20274;-67
2022/08/10 09:15:23;;;;;;;8.13;6.35;;;;;;;32.10;30.58;99351.94;5068350;28;20264;-67
2022/08/10 09:17:58;;;;;;;8.52;7.72;;;;;;;32.17;30.17;99341.72;5068016;28;20218;-65
2022/08/10 09:20:33;;;;;;;7.00;6.32;;;;;;;32.16;29.38;99335.53;5066705;28;20590;-66
2022/08/10 09:23:08;;;;;;;6.88;6.30;;;;;;;32.18;30.44;99343.41;5073515;28;20632;-67
2022/08/10 09:25:40;;;;;;;6.53;6.00;;;;;;;32.13;30.59;99342.91;5070931;28;20310;-66
2022/08/10 09:28:09;;;;;;;8.00;6.95;;;;;;;32.20;30.69;99344.13;5070069;28;20221;-67
2022/08/10 09:30:49;;;;;;;6.50;5.90;;;;;;;32.16;29.84;99345.31;5072391;28;20191;-65
2022/08/10 09:33:23;;;;;;;6.25;5.75;;;;;;;32.22;29.61;99329.78;5073056;28;20191;-66
2022/08/10 09:35:55;;;;;;;6.43;5.80;;;;;;;32.30;29.58;99337.16;5072549;28;20277;-67
2022/08/10 09:38:33;;;;;;;7.05;5.65;;;;;;;32.37;29.90;99338.38;5068073;28;20604;-66
2022/08/10 09:41:13;;;;;;;16.23;7.20;;;;;;;32.41;29.49;99331.88;5070052;28;20195;-65
2022/08/10 09:43:54;;;;;;;7.70;6.28;;;;;;;32.47;28.80;99334.09;5072456;28;20199;-67
2022/08/10 09:46:34;;;;;;;7.90;6.60;;;;;;;32.57;29.95;99338.63;5072724;28;20218;-66
2022/08/10 09:49:09;;;;;;;11.07;8.52;;;;;;;32.67;29.16;99333.41;5068991;28;20327;-66
2022/08/10 09:51:44;;;;;;;6.32;5.72;;;;;;;32.51;28.34;99312.44;5070212;28;20226;-65
2022/08/10 09:54:27;;;;;;;7.05;6.03;;;;;;;32.77;28.21;99322.94;5068916;28;20433;-66
2022/08/10 09:57:03;;;;;;;5.90;5.40;;;;;;;32.92;28.16;99327.03;5071884;28;20241;-66
2022/08/10 09:59:52;;;;;;;9.07;5.55;;;;;;;33.04;28.95;99318.97;5072204;28;20194;-66
2022/08/10 10:02:31;;;;;;;8.27;5.97;;;;;;;33.24;28.25;99309.41;5072444;28;20386;-67
2022/08/10 10:05:12;;;;;;;7.47;6.05;;;;;;;33.41;27.71;99313.38;5072332;28;20195;-66
2022/08/10 10:07:57;;;;;;;8.25;5.88;;;;;;;33.46;28.52;99304.03;5071958;28;20215;-66
2022/08/10 10:10:30;;;;;;;6.47;5.75;;;;;;;33.50;28.33;99312.66;5058823;28;20196;-66
2022/08/10 10:13:04;;;;;;;6.72;5.60;;;;;;;33.28;28.22;99316.19;5055404;28;20188;-67
2022/08/10 10:15:37;;;;;;;6.43;5.82;;;;;;;33.04;28.23;99313.63;5063737;28;20196;-66
2022/08/10 10:18:23;;;;;;;6.32;5.28;;;;;;;32.94;28.08;99315.31;5058131;28;20986;-67
2022/08/10 10:21:01;;;;;;;7.88;6.03;;;;;;;33.04;28.25;99310.13;5068865;28;20264;-66
2022/08/10 10:23:41;;;;;;;6.25;5.72;;;;;;;32.56;29.25;99307.63;5052424;28;20188;-66
2022/08/10 10:26:19;;;;;;;6.32;5.72;;;;;;;32.41;29.37;99297.31;5056923;28;20230;-66
2022/08/10 10:29:00;;;;;;;5.47;5.07;;;;;;;32.20;30.10;99304.22;5071433;28;20287;-66
2022/08/10 10:31:31;;;;;;;6.10;5.50;;;;;;;32.04;29.71;99304.53;5071831;28;20219;-66
2022/08/10 10:34:09;;;;;;;6.28;5.68;;;;;;;32.15;29.97;99295.75;5067965;28;20441;-66
2022/08/10 10:36:40;;;;;;;5.97;5.18;;;;;;;32.19;29.80;99298.09;5064879;28;20275;-67
2022/08/10 10:39:07;;;;;;;6.45;5.85;;;;;;;32.13;30.18;99287.91;5065326;28;20196;-67
2022/08/10 10:41:40;;;;;;;8.95;6.20;;;;;;;32.00;30.55;99292.44;5068696;28;20195;-67
2022/08/10 10:44:22;;;;;;;7.43;5.60;;;;;;;32.07;30.61;99291.88;5063664;28;20712;-67
2022/08/10 10:46:58;;;;;;;6.03;5.53;;;;;;;32.25;30.76;99289.63;5071351;28;20219;-67
2022/08/10 10:49:47;;;;;;;7.25;5.78;;;;;;;32.05;30.79;99285.84;5071251;28;20665;-67
2022/08/10 10:52:26;;;;;;;6.90;6.30;;;;;;;31.93;30.77;99267.25;5071035;28;20653;-66
2022/08/10 10:55:04;;;;;;;7.45;5.78;;;;;;;32.01;30.51;99289.66;5071321;28;20187;-68
2022/08/10 10:57:41;;;;;;;5.72;5.28;;;;;;;31.92;30.84;99285.00;5071040;28;20198;-67
2022/08/10 11:00:11;;;;;;;8.40;5.80;;;;;;;31.76;31.34;99289.75;5070877;28;20602;-66
2022/08/10 11:03:01;;;;;;;8.27;6.57;;;;;;;31.64;32.17;99288.03;5059725;28;20200;-67
2022/08/10 11:05:37;;;;;;;6.60;5.97;;;;;;;31.42;32.18;99288.72;5070850;28;20195;-66
2022/08/10 11:08:10;;;;;;;9.30;6.05;;;;;;;31.31;32.24;99293.09;5070627;28;20626;-67
2022/08/10 11:10:44;;;;;;;6.72;6.10;;;;;;;31.13;32.72;99279.31;5071093;28;20195;-67
2022/08/10 11:13:25;;;;;;;6.75;6.13;;;;;;;31.17;32.60;99295.88;5071084;28;20183;-67
2022/08/10 11:16:03;;;;;;;5.93;5.43;;;;;;;31.06;32.93;99303.75;5067956;28;20193;-66
2022/08/10 11:18:47;;;;;;;7.20;5.65;;;;;;;30.72;34.11;99322.00;5056027;28;20211;-65
2022/08/10 11:21:21;;;;;;;7.28;5.22;;;;;;;29.76;37.14;99309.00;5068138;28;20199;-65
2022/08/10 11:23:57;;;;;;;16.58;6.18;;;;;;;29.24;38.63;99318.56;5069922;28;20191;-64
2022/08/10 11:26:31;;;;;;;12.40;6.22;;;;;;;28.65;38.67;99323.06;5056031;28;20211;-65
2022/08/10 11:29:06;;;;;;;9.93;5.03;;;;;;;27.94;39.53;99318.44;5049897;28;20632;-65
2022/08/10 11:31:39;;;;;;;14.48;5.50;;;;;;;27.13;43.60;99372.22;5054929;28;20201;-64
2022/08/10 11:34:14;;;;;;;14.38;5.22;;;;;;;26.19;47.24;99377.03;5061957;28;20195;-64
2022/08/10 11:36:47;;;;;;;13.75;5.32;;;;;;;25.75;49.53;99402.81;5066126;28;20187;-63
2022/08/10 11:39:19;;;;;;;9.03;5.03;;;;;;;25.12;52.45;99410.97;5056664;28;20250;-65
2022/08/10 11:41:52;;;;;;;8.50;6.27;;;;;;;24.63;54.60;99420.09;5057896;28;20191;-65
2022/08/10 11:44:28;;;;;;;11.43;6.10;;;;;;;24.44;61.28;99421.78;5065189;28;20437;-65
2022/08/10 11:47:01;;;;;;;19.33;6.80;;;;;;;24.44;62.23;99387.63;5068575;28;20235;-64
2022/08/10 11:49:31;;;;;;;19.80;9.57;;;;;;;24.48;69.64;99381.31;5066867;28;20237;-58
2022/08/10 11:52:06;;;;;;;7.17;5.80;;;;;;;24.58;58.26;99372.16;5058220;28;20310;-58